createdAt,value
2018-03-15T00:00:11.314Z,9.87
2018-03-15T00:03:18.642Z,10.47
2018-03-15T00:06:21.798Z,10.18
2018-03-15T00:09:24.995Z,9.07
2018-03-15T00:12:28.197Z,10.17
2018-03-15T00:15:31.382Z,9.65
2018-03-15T00:18:34.596Z,10.80
2018-03-15T00:21:37.775Z,10.93
2018-03-15T00:24:40.960Z,11.22
2018-03-15T00:27:44.175Z,10.00
2018-03-15T00:30:47.345Z,10.40
2018-03-15T00:33:50.551Z,10.73
2018-03-15T00:36:53.726Z,10.45
2018-03-15T00:39:56.870Z,10.33
2018-03-15T00:43:00.164Z,9.80
2018-03-15T00:46:03.335Z,11.23
2018-03-15T00:49:06.528Z,9.87
2018-03-15T00:52:09.724Z,10.23
2018-03-15T00:55:13.013Z,11.50
2018-03-15T00:58:16.226Z,11.33
2018-03-15T01:01:19.412Z,10.90
2018-03-15T01:04:22.614Z,11.37
2018-03-15T01:07:25.838Z,12.98
2018-03-15T01:10:29.011Z,11.88
2018-03-15T01:13:32.141Z,11.78
2018-03-15T01:16:35.298Z,12.57
2018-03-15T01:19:38.469Z,11.77
2018-03-15T01:22:41.673Z,12.10
2018-03-15T01:25:44.873Z,12.50
2018-03-15T01:28:48.074Z,12.87
2018-03-15T01:31:51.205Z,12.10
2018-03-15T01:34:54.377Z,12.18
2018-03-15T01:37:57.567Z,12.93
2018-03-15T01:41:00.753Z,12.93
2018-03-15T01:44:03.946Z,12.75
2018-03-15T01:47:07.135Z,12.57
2018-03-15T01:50:10.331Z,12.57
2018-03-15T01:53:13.518Z,13.10
2018-03-15T01:56:16.714Z,12.73
2018-03-15T01:59:19.887Z,13.63
2018-03-15T02:02:23.111Z,12.83
2018-03-15T02:05:26.383Z,13.13
2018-03-15T02:08:29.527Z,12.67
2018-03-15T02:11:32.692Z,13.18
2018-03-15T02:14:35.843Z,14.43
2018-03-15T02:17:38.978Z,13.50
2018-03-15T02:20:42.105Z,13.63
2018-03-15T02:23:45.246Z,13.43
2018-03-15T02:26:48.381Z,14.67
2018-03-15T02:29:51.533Z,14.30
2018-03-15T02:32:54.768Z,14.37
2018-03-15T02:35:57.959Z,14.87
2018-03-15T02:39:01.150Z,14.53
2018-03-15T02:42:04.387Z,15.13
2018-03-15T02:45:07.500Z,14.03
2018-03-15T02:48:10.643Z,14.83
2018-03-15T02:51:13.848Z,15.37
2018-03-15T02:54:17.020Z,15.40
2018-03-15T02:57:20.179Z,15.17
2018-03-15T03:00:23.430Z,14.70
2018-03-15T03:03:26.547Z,14.97
2018-03-15T03:06:29.689Z,15.78
2018-03-15T03:09:32.905Z,15.20
2018-03-15T03:12:36.123Z,16.60
2018-03-15T03:15:39.274Z,15.10
2018-03-15T03:18:42.435Z,15.72
2018-03-15T03:21:45.563Z,15.73
2018-03-15T03:24:48.788Z,16.20
2018-03-15T03:27:51.923Z,15.67
2018-03-15T03:30:55.149Z,15.75
2018-03-15T03:33:58.340Z,16.00
2018-03-15T03:37:01.646Z,15.18
2018-03-15T03:40:04.863Z,15.98
2018-03-15T03:43:08.050Z,15.53
2018-03-15T03:46:11.342Z,16.80
2018-03-15T03:49:14.526Z,16.52
2018-03-15T03:52:17.667Z,16.33
2018-03-15T03:55:20.907Z,16.50
2018-03-15T03:58:24.039Z,16.23
2018-03-15T04:01:27.206Z,17.13
2018-03-15T04:04:30.341Z,17.17
2018-03-15T04:07:33.463Z,17.03
2018-03-15T04:10:36.626Z,17.80
2018-03-15T04:13:39.751Z,16.20
2018-03-15T04:16:42.883Z,16.82
2018-03-15T04:19:46.011Z,16.80
2018-03-15T04:22:49.160Z,17.53
2018-03-15T04:25:52.278Z,16.45
2018-03-15T04:28:55.441Z,17.40
2018-03-15T04:31:58.649Z,16.65
2018-03-15T04:35:01.862Z,16.90
2018-03-15T04:38:05.108Z,18.10
2018-03-15T04:41:08.266Z,18.10
2018-03-15T04:44:11.440Z,17.77
2018-03-15T04:47:14.628Z,17.30
2018-03-15T04:50:17.815Z,16.93
2018-03-15T04:53:20.959Z,17.40
2018-03-15T04:56:24.113Z,18.12
2018-03-15T04:59:27.290Z,16.20
2018-03-15T05:02:30.485Z,17.95
2018-03-15T05:05:33.698Z,16.42
2018-03-15T05:08:36.894Z,16.47
2018-03-15T05:11:40.030Z,17.40
2018-03-15T05:14:43.278Z,17.57
2018-03-15T05:17:46.414Z,16.57
2018-03-15T05:20:49.534Z,17.25
2018-03-15T05:23:52.848Z,17.12
2018-03-15T05:26:56.190Z,16.33
2018-03-15T05:29:59.454Z,17.70
2018-03-15T05:33:02.672Z,16.90
2018-03-15T05:36:05.873Z,17.65
2018-03-15T05:39:09.183Z,18.33
2018-03-15T05:42:12.446Z,17.75
2018-03-15T05:45:15.751Z,17.47
2018-03-15T05:48:19.032Z,17.48
2018-03-15T05:51:22.414Z,17.90
2018-03-15T05:54:25.623Z,16.73
2018-03-15T05:57:28.929Z,17.87
2018-03-15T06:00:32.222Z,18.62
2018-03-15T06:03:35.535Z,18.40
2018-03-15T06:06:38.826Z,16.73
2018-03-15T06:09:42.238Z,16.57
2018-03-15T06:12:45.557Z,17.60
2018-03-15T06:15:48.823Z,17.40
2018-03-15T06:18:53.031Z,17.40
2018-03-15T06:21:56.266Z,16.52
2018-03-15T06:24:59.418Z,17.27
2018-03-15T06:28:02.618Z,15.68
2018-03-15T06:31:05.830Z,15.87
2018-03-15T06:34:09.011Z,17.25
2018-03-15T06:37:12.196Z,18.30
2018-03-15T06:40:15.476Z,16.45
2018-03-15T06:43:18.694Z,16.70
2018-03-15T06:46:21.897Z,15.85
2018-03-15T06:49:25.062Z,16.47
2018-03-15T06:52:28.290Z,15.90
2018-03-15T06:55:31.471Z,16.97
2018-03-15T06:58:34.583Z,16.37
2018-03-15T07:01:37.949Z,15.57
2018-03-15T07:04:41.112Z,15.98
2018-03-15T07:07:44.305Z,17.60
2018-03-15T07:10:47.455Z,16.42
2018-03-15T07:13:50.672Z,16.07
2018-03-15T07:16:53.842Z,16.53
2018-03-15T07:19:57.175Z,15.17
2018-03-15T07:23:00.360Z,16.13
2018-03-15T07:26:03.541Z,15.87
2018-03-15T07:29:06.687Z,15.47
2018-03-15T07:32:09.927Z,15.20
2018-03-15T07:35:13.115Z,15.08
2018-03-15T07:38:16.378Z,15.27
2018-03-15T07:41:19.614Z,14.73
2018-03-15T07:44:22.835Z,15.03
2018-03-15T07:47:26.007Z,15.43
2018-03-15T07:50:29.302Z,14.63
2018-03-15T07:53:32.485Z,14.57
2018-03-15T07:56:35.651Z,14.97
2018-03-15T07:59:38.787Z,13.70
2018-03-15T08:02:41.962Z,14.20
2018-03-15T08:05:45.184Z,14.68
2018-03-15T08:08:48.363Z,13.80
2018-03-15T08:11:51.545Z,14.80
2018-03-15T08:14:54.722Z,13.75
2018-03-15T08:17:57.867Z,13.40
2018-03-15T08:21:01.050Z,13.53
2018-03-15T08:24:04.229Z,14.25
2018-03-15T08:27:07.430Z,13.47
2018-03-15T08:30:10.639Z,13.80
2018-03-15T08:33:13.830Z,14.53
2018-03-15T08:36:17.032Z,13.93
2018-03-15T08:39:20.203Z,13.50
2018-03-15T08:42:23.352Z,12.93
2018-03-15T08:45:26.531Z,13.43
2018-03-15T08:48:29.706Z,13.87
2018-03-15T08:51:32.889Z,13.77
2018-03-15T08:54:36.039Z,13.60
2018-03-15T08:57:39.170Z,14.13
2018-03-15T09:00:42.362Z,14.60
2018-03-15T09:03:45.566Z,14.13
2018-03-15T09:06:48.769Z,12.70
2018-03-15T09:09:51.950Z,13.43
2018-03-15T09:12:55.086Z,13.80
2018-03-15T09:15:58.261Z,13.20
2018-03-15T09:19:01.436Z,13.57
2018-03-15T09:22:04.658Z,13.33
2018-03-15T09:25:07.834Z,12.60
2018-03-15T09:28:11.025Z,13.73
2018-03-15T09:31:14.214Z,13.43
2018-03-15T09:34:17.429Z,13.07
2018-03-15T09:37:20.630Z,13.20
2018-03-15T09:40:23.815Z,13.13
2018-03-15T09:43:27.030Z,12.20
2018-03-15T09:46:30.190Z,12.70
2018-03-15T09:49:33.391Z,12.43
2018-03-15T09:52:36.540Z,13.63
2018-03-15T09:55:39.698Z,12.57
2018-03-15T09:58:42.842Z,12.30
2018-03-15T10:01:45.983Z,12.27
2018-03-15T10:04:49.158Z,12.27
2018-03-15T10:07:52.289Z,12.20
2018-03-15T10:10:55.402Z,11.97
2018-03-15T10:13:58.532Z,12.18
2018-03-15T10:17:01.773Z,12.60
2018-03-15T10:20:04.854Z,12.45
2018-03-15T10:23:07.986Z,11.50
2018-03-15T10:26:11.121Z,11.78
2018-03-15T10:29:14.308Z,11.07
2018-03-15T10:32:17.557Z,12.20
2018-03-15T10:35:25.751Z,12.03
2018-03-15T10:38:28.991Z,12.28
2018-03-15T10:41:32.182Z,15.45
2018-03-15T10:44:36.376Z,11.45
2018-03-15T10:47:39.597Z,12.03
2018-03-15T10:50:42.788Z,11.57
2018-03-15T10:53:45.994Z,11.93
2018-03-15T10:56:49.657Z,11.30
2018-03-15T10:59:52.936Z,11.13
2018-03-15T11:02:56.081Z,11.07
2018-03-15T11:06:03.449Z,11.03
2018-03-15T11:09:10.862Z,10.97
2018-03-15T11:12:14.069Z,11.77
2018-03-15T11:15:17.361Z,11.20
2018-03-15T11:18:21.493Z,10.73
2018-03-15T11:21:24.640Z,10.23
2018-03-15T11:24:27.790Z,10.37
2018-03-15T11:27:31.128Z,10.10
2018-03-15T11:30:34.276Z,10.10
2018-03-15T11:33:37.446Z,9.97
2018-03-15T11:36:40.647Z,9.43
2018-03-15T11:39:43.859Z,9.23
2018-03-15T11:42:47.035Z,8.53
2018-03-15T11:45:51.294Z,8.40
2018-03-15T11:48:54.461Z,7.73
2018-03-15T11:51:57.599Z,8.67
2018-03-15T11:55:00.849Z,7.27
2018-03-15T11:58:04.060Z,7.43
2018-03-15T12:01:07.315Z,7.17
2018-03-15T12:04:10.561Z,7.50
2018-03-15T12:07:13.752Z,8.23
2018-03-15T12:10:16.911Z,7.27
2018-03-15T12:13:20.547Z,7.73
2018-03-15T12:16:23.725Z,7.07
2018-03-15T12:19:27.005Z,7.10
2018-03-15T12:22:30.205Z,7.93
2018-03-15T12:25:34.846Z,7.83
2018-03-15T12:28:38.061Z,7.00
2018-03-15T12:31:41.323Z,6.93
2018-03-15T12:34:44.601Z,7.17
2018-03-15T12:37:47.826Z,8.50
2018-03-15T12:40:50.989Z,8.27
2018-03-15T12:43:54.334Z,8.77
2018-03-15T12:46:57.742Z,8.90
2018-03-15T12:50:00.894Z,8.00
2018-03-15T12:53:04.095Z,8.60
2018-03-15T12:56:08.202Z,8.47
2018-03-15T12:59:11.317Z,8.40
2018-03-15T13:02:14.505Z,8.40
2018-03-15T13:05:17.635Z,9.00
2018-03-15T13:08:20.790Z,8.30
2018-03-15T13:11:23.994Z,8.60
2018-03-15T13:14:27.201Z,9.33
2018-03-15T13:17:30.319Z,8.93
2018-03-15T13:20:33.472Z,9.77
2018-03-15T13:23:37.937Z,9.17
2018-03-15T13:26:41.114Z,8.83
2018-03-15T13:29:44.263Z,9.63
2018-03-15T13:32:47.479Z,8.73
2018-03-15T13:35:50.867Z,9.30
2018-03-15T13:38:54.139Z,9.30
2018-03-15T13:41:57.275Z,9.00
2018-03-15T13:45:00.478Z,9.28
2018-03-15T13:48:03.721Z,9.13
2018-03-15T13:51:07.306Z,9.13
2018-03-15T13:54:10.457Z,9.10
2018-03-15T13:57:13.641Z,9.33
2018-03-15T14:00:16.866Z,9.27
2018-03-15T14:03:20.344Z,9.40
2018-03-15T14:06:23.539Z,9.00
2018-03-15T14:09:26.730Z,9.37
2018-03-15T14:12:29.941Z,8.97
2018-03-15T14:15:33.150Z,9.77
2018-03-15T14:18:36.318Z,9.37
2018-03-15T14:21:39.466Z,10.07
2018-03-15T14:24:43.024Z,10.60
2018-03-15T14:27:46.222Z,10.43
2018-03-15T14:30:49.455Z,10.28
2018-03-15T14:33:52.618Z,9.65
2018-03-15T14:36:55.773Z,9.53
2018-03-15T14:39:58.998Z,10.07
2018-03-15T14:43:02.196Z,10.53
2018-03-15T14:46:05.389Z,9.95
2018-03-15T14:49:09.609Z,9.73
2018-03-15T14:52:12.803Z,11.35
2018-03-15T14:55:16.003Z,9.93
2018-03-15T14:58:19.182Z,9.13
2018-03-15T15:01:22.398Z,9.90
2018-03-15T15:04:25.802Z,9.10
2018-03-15T15:07:29.107Z,8.93
2018-03-15T15:10:32.234Z,9.58
2018-03-15T15:13:35.363Z,9.23
2018-03-15T15:16:39.491Z,9.65
2018-03-15T15:19:42.686Z,9.23
2018-03-15T15:22:45.893Z,8.43
2018-03-15T15:25:49.102Z,9.13
2018-03-15T15:28:52.303Z,8.70
2018-03-15T15:31:55.534Z,8.60
2018-03-15T15:34:58.750Z,8.80
2018-03-15T15:38:01.956Z,8.67
2018-03-15T15:41:05.187Z,8.55
2018-03-15T15:44:09.482Z,8.00
2018-03-15T15:47:12.658Z,8.53
2018-03-15T15:50:15.962Z,9.18
2018-03-15T15:53:19.162Z,8.60
2018-03-15T15:56:22.354Z,8.78
2018-03-15T15:59:25.556Z,8.80
2018-03-15T16:02:28.743Z,8.28
2018-03-15T16:05:31.956Z,8.38
2018-03-15T16:08:35.140Z,8.50
2018-03-15T16:11:39.447Z,8.45
2018-03-15T16:14:42.659Z,8.33
2018-03-15T16:17:45.922Z,9.10
2018-03-15T16:20:49.151Z,9.38
2018-03-15T16:23:52.337Z,8.98
2018-03-15T16:26:55.567Z,9.55
2018-03-15T16:29:58.730Z,10.00
2018-03-15T16:33:01.903Z,9.33
2018-03-15T16:36:05.130Z,9.70
2018-03-15T16:39:09.058Z,9.45
2018-03-15T16:42:12.231Z,9.35
2018-03-15T16:45:15.414Z,10.00
2018-03-15T16:48:18.624Z,9.08
2018-03-15T16:51:21.811Z,11.30
2018-03-15T16:54:25.035Z,11.65
2018-03-15T16:57:28.272Z,12.25
2018-03-15T17:00:31.616Z,12.30
2018-03-15T17:03:34.794Z,12.23
2018-03-15T17:06:38.435Z,11.80
2018-03-15T17:09:41.600Z,11.55
2018-03-15T17:12:44.729Z,10.35
2018-03-15T17:15:47.911Z,11.50
2018-03-15T17:18:51.195Z,11.20
2018-03-15T17:21:54.440Z,10.05
2018-03-15T17:24:58.042Z,11.05
2018-03-15T17:28:01.226Z,11.60
2018-03-15T17:31:04.508Z,11.93
2018-03-15T17:34:08.674Z,11.25
2018-03-15T17:37:12.033Z,11.53
2018-03-15T17:40:15.341Z,13.47
2018-03-15T17:43:18.519Z,13.68
2018-03-15T17:46:21.796Z,12.63
2018-03-15T17:49:25.567Z,11.00
2018-03-15T17:52:28.756Z,12.07
2018-03-15T17:55:32.022Z,12.33
2018-03-15T17:58:35.120Z,11.73
2018-03-15T18:01:38.794Z,11.50
2018-03-15T18:04:42.034Z,11.97
2018-03-15T18:07:45.295Z,11.57
2018-03-15T18:10:48.466Z,12.53
2018-03-15T18:13:51.665Z,12.33
2018-03-15T18:16:55.321Z,12.67
2018-03-15T18:19:58.524Z,13.50
2018-03-15T18:23:01.662Z,12.80
2018-03-15T18:26:04.930Z,12.87
2018-03-15T18:29:08.163Z,12.33
2018-03-15T18:32:11.345Z,12.30
2018-03-15T18:35:14.544Z,12.00
2018-03-15T18:38:17.743Z,13.05
2018-03-15T18:41:20.894Z,12.30
2018-03-15T18:44:24.052Z,12.40
2018-03-15T18:47:27.270Z,12.43
2018-03-15T18:50:30.586Z,13.10
2018-03-15T18:53:33.740Z,13.67
2018-03-15T18:56:36.911Z,15.43
2018-03-15T18:59:40.114Z,14.37
2018-03-15T19:02:43.301Z,14.07
2018-03-15T19:05:46.483Z,14.10
2018-03-15T19:08:49.627Z,16.63
2018-03-15T19:11:52.779Z,16.07
2018-03-15T19:14:55.984Z,14.37
2018-03-15T19:17:59.176Z,13.67
2018-03-15T19:21:02.367Z,13.20
2018-03-15T19:24:05.593Z,11.90
2018-03-15T19:27:08.924Z,13.00
2018-03-15T19:30:12.155Z,14.60
2018-03-15T19:33:15.362Z,13.67
2018-03-15T19:36:18.546Z,15.03
2018-03-15T19:39:21.797Z,13.70
2018-03-15T19:42:25.051Z,13.70
2018-03-15T19:45:28.282Z,13.63
2018-03-15T19:48:31.414Z,12.60
2018-03-15T19:51:34.713Z,14.00
2018-03-15T19:54:38.543Z,14.77
2018-03-15T19:57:41.690Z,14.10
2018-03-15T20:00:44.846Z,14.57
2018-03-15T20:03:48.532Z,15.57
2018-03-15T20:06:51.806Z,14.13
2018-03-15T20:09:54.926Z,14.37
2018-03-15T20:12:58.578Z,15.53
2018-03-15T20:16:01.751Z,15.63
2018-03-15T20:19:09.205Z,16.27
2018-03-15T20:22:12.410Z,16.40
2018-03-15T20:25:15.620Z,16.70
2018-03-15T20:28:49.466Z,16.27
2018-03-15T20:31:52.717Z,16.53
2018-03-15T20:34:55.906Z,17.07
2018-03-15T20:37:59.289Z,17.30
2018-03-15T20:41:36.681Z,17.03
2018-03-15T20:44:39.899Z,17.17
2018-03-15T20:48:45.925Z,18.23
2018-03-15T20:51:49.193Z,18.20
2018-03-15T20:54:52.373Z,18.20
2018-03-15T20:57:55.798Z,18.63
2018-03-15T21:00:59.057Z,19.20
2018-03-15T21:04:02.299Z,19.10
2018-03-15T21:07:05.460Z,19.17
2018-03-15T21:10:08.682Z,19.73
2018-03-15T21:13:11.862Z,18.10
2018-03-15T21:16:15.102Z,18.63
2018-03-15T21:19:18.351Z,18.20
2018-03-15T21:22:21.795Z,18.57
2018-03-15T21:25:25.046Z,19.07
2018-03-15T21:28:28.334Z,19.70
2018-03-15T21:31:31.514Z,19.37
2018-03-15T21:34:34.718Z,19.03
2018-03-15T21:37:37.886Z,18.40
2018-03-15T21:40:41.145Z,17.82
2018-03-15T21:43:44.273Z,18.10
2018-03-15T21:46:47.497Z,19.12
2018-03-15T21:49:50.703Z,17.57
2018-03-15T21:52:53.887Z,17.33
2018-03-15T21:55:57.081Z,16.53
2018-03-15T21:59:00.266Z,16.97
2018-03-15T22:02:03.481Z,17.77
2018-03-15T22:05:06.701Z,16.77
2018-03-15T22:08:10.174Z,18.40
2018-03-15T22:11:43.536Z,18.03
2018-03-15T22:14:49.914Z,17.80
2018-03-15T22:17:55.443Z,16.13
2018-03-15T22:20:58.676Z,17.17
2018-03-15T22:24:01.890Z,17.77
2018-03-15T22:27:05.688Z,17.67
2018-03-15T22:30:08.892Z,17.33
2018-03-15T22:33:39.614Z,16.77
2018-03-15T22:48:39.959Z,17.40
2018-03-15T22:53:05.221Z,17.23
2018-03-15T22:56:27.820Z,18.23
2018-03-15T23:00:11.279Z,17.40
2018-03-15T23:07:09.598Z,16.20
2018-03-15T23:10:38.004Z,17.48
2018-03-15T23:17:50.912Z,18.37
2018-03-15T23:21:20.505Z,18.00
2018-03-15T23:25:00.139Z,17.48
2018-03-15T23:29:33.022Z,16.10
2018-03-15T23:33:08.831Z,16.50
2018-03-15T23:47:58.435Z,17.40
2018-03-15T23:58:37.125Z,16.70
